Time;durP1;ratioP1;P1;durP2;ratioP2;P2;SDS_P1;SDS_P2;PMS_P1;PMS_P2;Temp;Humidity;BMP_temperature;BMP_pressure;BME280_temperature;BME280_humidity;BME280_pressure;Samples;Min_cycle;Max_cycle;Signal;HPM_P1;HPM_P2
2021/07/11 00:01:07;;;;;;;12.63;8.50;;;;;;;;;;753826;184;918978;-74
2021/07/11 00:03:33;;;;;;;13.50;8.20;;;;;;;;;;757860;184;919367;-76
2021/07/11 00:05:59;;;;;;;10.13;8.10;;;;;;;;;;746955;184;1123482;-76
2021/07/11 00:08:25;;;;;;;11.13;8.00;;;;;;;;;;747763;184;919474;-76
2021/07/11 00:10:51;;;;;;;10.80;8.10;;;;;;;;;;756777;183;918068;-79
2021/07/11 00:13:17;;;;;;;9.27;8.03;;;;;;;;;;750837;183;917129;-77
2021/07/11 00:15:42;;;;;;;12.07;8.90;;;;;;;;;;747284;184;1021945;-76
2021/07/11 00:18:11;;;;;;;10.60;8.97;;;;;;;;;;754417;184;918961;-76
2021/07/11 00:20:34;;;;;;;11.13;10.00;;;;;;;;;;757990;184;918426;-73
2021/07/11 00:23:00;;;;;;;12.83;8.57;;;;;;;;;;750422;184;919004;-77
2021/07/11 00:25:26;;;;;;;11.00;9.83;;;;;;;;;;750781;184;1020017;-76
2021/07/11 00:27:53;;;;;;;13.07;9.47;;;;;;;;;;758677;184;941606;-75
2021/07/11 00:30:18;;;;;;;11.43;9.63;;;;;;;;;;753132;184;919180;-74
2021/07/11 00:32:43;;;;;;;12.20;9.05;;;;;;;;;;749988;184;918218;-76
2021/07/11 00:35:10;;;;;;;9.87;8.77;;;;;;;;;;753119;184;917944;-76
2021/07/11 00:37:36;;;;;;;12.10;8.93;;;;;;;;;;753738;184;920972;-77
2021/07/11 00:40:02;;;;;;;14.60;8.97;;;;;;;;;;752442;184;920090;-77
2021/07/11 00:42:27;;;;;;;10.77;8.83;;;;;;;;;;754333;184;1021583;-76
2021/07/11 00:44:53;;;;;;;10.67;9.30;;;;;;;;;;759767;182;916232;-76
2021/07/11 00:47:19;;;;;;;10.90;9.80;;;;;;;;;;750216;184;924477;-76
2021/07/11 00:49:46;;;;;;;12.37;10.00;;;;;;;;;;747317;184;918600;-74
2021/07/11 00:52:11;;;;;;;13.47;9.60;;;;;;;;;;759308;184;904998;-75
2021/07/11 00:54:37;;;;;;;9.43;8.40;;;;;;;;;;754700;184;919161;-72
2021/07/11 00:57:03;;;;;;;12.57;8.90;;;;;;;;;;754645;184;919505;-74
2021/07/11 00:59:29;;;;;;;12.70;9.50;;;;;;;;;;752940;184;919080;-76
2021/07/11 01:01:56;;;;;;;11.60;9.57;;;;;;;;;;752823;184;918964;-75
2021/07/11 01:04:23;;;;;;;13.47;10.33;;;;;;;;;;749043;184;1021473;-74
2021/07/11 01:06:49;;;;;;;11.57;9.13;;;;;;;;;;748016;183;919134;-74
2021/07/11 01:09:15;;;;;;;11.70;10.50;;;;;;;;;;758810;183;917420;-75
2021/07/11 01:11:41;;;;;;;14.70;11.13;;;;;;;;;;753267;184;918345;-75
2021/07/11 01:14:07;;;;;;;15.47;11.43;;;;;;;;;;747753;184;918772;-76
2021/07/11 01:16:33;;;;;;;15.17;10.53;;;;;;;;;;755330;184;920217;-75
2021/07/11 01:18:59;;;;;;;22.33;12.80;;;;;;;;;;748743;184;1223449;-74
2021/07/11 01:21:25;;;;;;;14.30;11.00;;;;;;;;;;757909;184;918889;-75
2021/07/11 01:23:51;;;;;;;11.97;10.73;;;;;;;;;;759070;184;916571;-74
2021/07/11 01:26:16;;;;;;;11.63;10.40;;;;;;;;;;754107;184;914853;-74
2021/07/11 01:28:42;;;;;;;14.43;11.17;;;;;;;;;;756294;184;915827;-75
2021/07/11 01:31:08;;;;;;;13.83;10.00;;;;;;;;;;753694;184;919729;-76
2021/07/11 01:33:34;;;;;;;20.73;11.63;;;;;;;;;;748679;184;915829;-75
2021/07/11 01:36:00;;;;;;;28.47;11.27;;;;;;;;;;747781;184;915179;-75
2021/07/11 01:38:26;;;;;;;13.05;10.65;;;;;;;;;;751184;184;918891;-75
2021/07/11 01:40:51;;;;;;;14.07;10.90;;;;;;;;;;756584;184;917334;-75
2021/07/11 01:43:18;;;;;;;14.43;10.73;;;;;;;;;;753834;184;918912;-74
2021/07/11 01:45:44;;;;;;;13.57;10.67;;;;;;;;;;749385;184;918926;-74
2021/07/11 01:48:10;;;;;;;17.60;11.90;;;;;;;;;;753866;184;918320;-74
2021/07/11 01:50:36;;;;;;;15.97;11.10;;;;;;;;;;750243;184;919587;-74
2021/07/11 01:53:01;;;;;;;12.13;10.85;;;;;;;;;;753050;184;919322;-75
2021/07/11 01:55:28;;;;;;;18.87;12.35;;;;;;;;;;753577;184;921238;-74
2021/07/11 01:57:54;;;;;;;17.83;11.83;;;;;;;;;;756527;184;919326;-76
2021/07/11 02:00:19;;;;;;;16.60;11.90;;;;;;;;;;750093;184;918236;-75
2021/07/11 02:02:45;;;;;;;15.57;12.20;;;;;;;;;;754292;184;921277;-75
2021/07/11 02:05:11;;;;;;;14.40;11.90;;;;;;;;;;754739;184;918450;-74
2021/07/11 02:07:37;;;;;;;13.57;11.88;;;;;;;;;;752055;184;918241;-74
2021/07/11 02:10:04;;;;;;;14.23;11.73;;;;;;;;;;751151;184;918636;-73
2021/07/11 02:12:31;;;;;;;16.30;12.40;;;;;;;;;;757962;184;919711;-72
2021/07/11 02:14:56;;;;;;;15.80;11.30;;;;;;;;;;753868;184;918994;-73
2021/07/11 02:17:22;;;;;;;15.30;13.40;;;;;;;;;;756378;184;917479;-73
2021/07/11 02:19:47;;;;;;;16.23;11.77;;;;;;;;;;758452;183;941699;-73
2021/07/11 02:22:13;;;;;;;17.07;12.90;;;;;;;;;;752395;183;919362;-73
2021/07/11 02:24:39;;;;;;;15.00;12.67;;;;;;;;;;748043;184;921365;-73
2021/07/11 02:27:05;;;;;;;14.20;12.60;;;;;;;;;;752173;184;921247;-73
2021/07/11 02:29:36;;;;;;;23.98;12.68;;;;;;;;;;758718;183;919753;-73
2021/07/11 02:31:57;;;;;;;16.20;12.77;;;;;;;;;;752164;184;920111;-73
2021/07/11 02:34:22;;;;;;;14.53;12.80;;;;;;;;;;752648;185;921242;-74
2021/07/11 02:36:48;;;;;;;19.73;12.00;;;;;;;;;;756834;184;918440;-73
2021/07/11 02:39:14;;;;;;;14.80;12.53;;;;;;;;;;752572;184;915534;-72
2021/07/11 02:41:40;;;;;;;15.03;12.17;;;;;;;;;;749443;184;916301;-73
2021/07/11 02:44:06;;;;;;;16.43;13.30;;;;;;;;;;756752;183;915678;-74
2021/07/11 02:46:32;;;;;;;19.20;12.07;;;;;;;;;;750594;184;915496;-72
2021/07/11 02:48:58;;;;;;;18.70;13.73;;;;;;;;;;745293;184;1017144;-73
2021/07/11 02:51:23;;;;;;;18.87;12.03;;;;;;;;;;751187;184;919648;-70
2021/07/11 02:53:49;;;;;;;21.23;12.23;;;;;;;;;;756345;183;919665;-73
2021/07/11 02:56:15;;;;;;;12.97;11.50;;;;;;;;;;747140;183;918626;-72
2021/07/11 02:58:41;;;;;;;16.25;12.80;;;;;;;;;;751131;184;1021858;-72
2021/07/11 03:01:07;;;;;;;17.00;12.90;;;;;;;;;;756410;184;974113;-72
2021/07/11 03:03:33;;;;;;;19.10;13.20;;;;;;;;;;753153;184;919625;-72
2021/07/11 03:05:58;;;;;;;19.48;13.75;;;;;;;;;;753225;184;919129;-72
2021/07/11 03:08:24;;;;;;;27.50;13.80;;;;;;;;;;756192;184;919507;-72
2021/07/11 03:10:50;;;;;;;19.83;13.83;;;;;;;;;;750804;184;920989;-72
2021/07/11 03:13:16;;;;;;;16.00;12.13;;;;;;;;;;751444;184;919496;-73
2021/07/11 03:15:42;;;;;;;16.30;13.33;;;;;;;;;;755344;184;919571;-71
2021/07/11 03:18:08;;;;;;;16.70;13.37;;;;;;;;;;751094;184;921472;-73
2021/07/11 03:20:34;;;;;;;22.00;14.67;;;;;;;;;;752863;184;919174;-71
2021/07/11 03:22:59;;;;;;;18.37;14.07;;;;;;;;;;750062;184;919174;-71
2021/07/11 03:25:25;;;;;;;23.10;13.87;;;;;;;;;;754745;184;918786;-72
2021/07/11 03:27:51;;;;;;;17.85;15.50;;;;;;;;;;750086;184;919256;-72
2021/07/11 03:30:18;;;;;;;16.70;13.80;;;;;;;;;;749858;183;929433;-72
2021/07/11 03:32:55;;;;;;;20.40;14.10;;;;;;;;;;756751;183;918519;-69
2021/07/11 03:35:21;;;;;;;19.30;14.30;;;;;;;;;;754603;187;920627;-72
2021/07/11 03:37:47;;;;;;;17.90;14.83;;;;;;;;;;751219;184;893211;-71
2021/07/11 03:40:13;;;;;;;20.00;15.00;;;;;;;;;;752063;185;918389;-72
2021/07/11 03:42:39;;;;;;;18.20;15.20;;;;;;;;;;756677;184;918691;-72
2021/07/11 03:45:05;;;;;;;19.40;14.50;;;;;;;;;;754371;184;1016019;-72
2021/07/11 03:47:33;;;;;;;19.43;13.20;;;;;;;;;;749580;184;918995;-74
2021/07/11 03:49:58;;;;;;;14.73;13.23;;;;;;;;;;755241;184;919604;-73
2021/07/11 03:52:24;;;;;;;16.50;14.60;;;;;;;;;;732459;188;918320;-74
2021/07/11 03:54:50;;;;;;;23.50;14.07;;;;;;;;;;749116;184;919693;-72
2021/07/11 03:57:15;;;;;;;18.17;15.47;;;;;;;;;;753817;184;919536;-74
2021/07/11 03:59:41;;;;;;;19.57;13.80;;;;;;;;;;756227;184;917281;-71
2021/07/11 04:02:07;;;;;;;17.90;16.00;;;;;;;;;;749317;184;915017;-72
2021/07/11 04:04:33;;;;;;;17.87;14.10;;;;;;;;;;750242;184;916537;-72
2021/07/11 04:06:59;;;;;;;17.90;14.07;;;;;;;;;;754927;184;918904;-74
2021/07/11 04:09:25;;;;;;;22.27;15.03;;;;;;;;;;749811;183;919182;-73
2021/07/11 04:11:51;;;;;;;16.63;14.93;;;;;;;;;;748266;184;919062;-71
2021/07/11 04:14:17;;;;;;;16.90;13.10;;;;;;;;;;756175;183;918294;-72
2021/07/11 04:16:42;;;;;;;19.00;14.63;;;;;;;;;;757571;184;919029;-73
2021/07/11 04:19:08;;;;;;;16.97;14.73;;;;;;;;;;750059;184;920065;-73
2021/07/11 04:21:34;;;;;;;16.07;14.30;;;;;;;;;;749830;184;920056;-72
2021/07/11 04:24:00;;;;;;;18.33;14.07;;;;;;;;;;762753;183;1018649;-72
2021/07/11 04:26:26;;;;;;;18.30;14.87;;;;;;;;;;751116;184;915728;-69
2021/07/11 04:28:52;;;;;;;19.07;14.00;;;;;;;;;;751521;184;916591;-71
2021/07/11 04:31:17;;;;;;;24.10;15.13;;;;;;;;;;755577;184;915877;-72
2021/07/11 04:33:43;;;;;;;16.60;14.00;;;;;;;;;;751890;184;916545;-69
2021/07/11 04:36:09;;;;;;;18.90;13.17;;;;;;;;;;749010;184;919775;-70
2021/07/11 04:38:35;;;;;;;14.87;13.20;;;;;;;;;;756076;184;919747;-72
2021/07/11 04:41:01;;;;;;;17.90;15.13;;;;;;;;;;748615;184;919572;-72
2021/07/11 04:43:27;;;;;;;19.60;12.83;;;;;;;;;;754613;183;919727;-72
2021/07/11 04:45:52;;;;;;;13.90;12.40;;;;;;;;;;759022;183;907880;-74
2021/07/11 04:48:18;;;;;;;14.52;11.63;;;;;;;;;;756393;184;919042;-73
2021/07/11 04:50:44;;;;;;;18.00;11.53;;;;;;;;;;753417;184;918817;-71
2021/07/11 04:53:11;;;;;;;18.77;12.10;;;;;;;;;;752674;183;1026794;-73
2021/07/11 04:55:37;;;;;;;14.30;11.23;;;;;;;;;;759921;184;919644;-72
2021/07/11 04:58:02;;;;;;;15.43;12.67;;;;;;;;;;754550;184;919100;-70
2021/07/11 05:00:29;;;;;;;15.37;12.30;;;;;;;;;;756393;184;918968;-71
2021/07/11 05:02:55;;;;;;;13.18;11.68;;;;;;;;;;754798;184;919499;-72
2021/07/11 05:05:21;;;;;;;15.13;11.90;;;;;;;;;;755481;184;917653;-72
2021/07/11 05:07:47;;;;;;;15.50;13.03;;;;;;;;;;754956;183;919510;-71
2021/07/11 05:10:12;;;;;;;18.47;13.50;;;;;;;;;;757229;184;919478;-73
2021/07/11 05:12:38;;;;;;;20.20;11.70;;;;;;;;;;749418;184;920168;-72
2021/07/11 05:15:05;;;;;;;13.37;11.20;;;;;;;;;;746892;184;914056;-71
2021/07/11 05:17:31;;;;;;;14.70;12.82;;;;;;;;;;751204;184;929034;-71
2021/07/11 05:19:56;;;;;;;14.53;11.47;;;;;;;;;;756912;184;920733;-72
2021/07/11 05:22:22;;;;;;;17.07;13.03;;;;;;;;;;755900;184;919518;-74
2021/07/11 05:24:48;;;;;;;24.83;11.83;;;;;;;;;;750454;184;918857;-73
2021/07/11 05:27:14;;;;;;;16.40;14.70;;;;;;;;;;757887;184;919612;-70
2021/07/11 05:29:40;;;;;;;16.20;13.90;;;;;;;;;;756911;184;918658;-71
2021/07/11 05:32:06;;;;;;;20.53;13.60;;;;;;;;;;751729;184;919029;-71
2021/07/11 05:34:32;;;;;;;17.60;12.90;;;;;;;;;;755764;184;919495;-73
2021/07/11 05:36:58;;;;;;;19.20;16.60;;;;;;;;;;755192;183;919298;-72
2021/07/11 05:39:23;;;;;;;18.17;14.77;;;;;;;;;;751005;184;918895;-74
2021/07/11 05:41:49;;;;;;;18.73;15.00;;;;;;;;;;750753;184;920700;-74
2021/07/11 05:44:15;;;;;;;21.77;16.43;;;;;;;;;;755708;182;1042837;-74
2021/07/11 05:46:41;;;;;;;19.40;14.73;;;;;;;;;;754843;183;921304;-74
2021/07/11 05:49:07;;;;;;;17.27;14.20;;;;;;;;;;749701;184;919171;-76
2021/07/11 05:51:33;;;;;;;21.60;15.10;;;;;;;;;;757505;184;918601;-75
2021/07/11 05:53:59;;;;;;;22.33;14.10;;;;;;;;;;752531;183;918740;-74
2021/07/11 05:56:24;;;;;;;19.60;15.27;;;;;;;;;;755021;183;919535;-72
2021/07/11 05:58:50;;;;;;;17.98;14.38;;;;;;;;;;757347;184;902791;-74
2021/07/11 06:01:16;;;;;;;18.20;16.27;;;;;;;;;;749541;184;918995;-74
2021/07/11 06:03:42;;;;;;;20.37;16.70;;;;;;;;;;750543;184;1020219;-75
2021/07/11 06:06:08;;;;;;;21.00;17.63;;;;;;;;;;755942;184;919372;-75
2021/07/11 06:08:34;;;;;;;18.90;13.67;;;;;;;;;;749681;184;918508;-75
2021/07/11 06:11:00;;;;;;;16.97;14.30;;;;;;;;;;751747;184;882092;-78
2021/07/11 06:13:25;;;;;;;23.00;16.60;;;;;;;;;;751127;184;918704;-75
2021/07/11 06:15:51;;;;;;;19.90;16.20;;;;;;;;;;757904;184;869610;-72
2021/07/11 06:18:17;;;;;;;17.37;13.60;;;;;;;;;;753921;184;918781;-73
2021/07/11 06:20:43;;;;;;;20.50;15.25;;;;;;;;;;751181;184;912876;-76
2021/07/11 06:23:09;;;;;;;19.90;14.30;;;;;;;;;;760512;184;622226;-75
2021/07/11 06:25:35;;;;;;;18.90;15.00;;;;;;;;;;752434;184;916517;-75
2021/07/11 06:28:01;;;;;;;17.47;14.57;;;;;;;;;;751279;184;926549;-73
2021/07/11 06:30:26;;;;;;;16.57;14.70;;;;;;;;;;756600;184;913991;-77
2021/07/11 06:32:52;;;;;;;17.10;15.10;;;;;;;;;;750179;184;915328;-76
2021/07/11 06:35:18;;;;;;;21.80;16.77;;;;;;;;;;751308;184;913088;-77
2021/07/11 06:37:45;;;;;;;17.93;15.87;;;;;;;;;;752258;184;918945;-75
2021/07/11 06:40:10;;;;;;;18.17;15.83;;;;;;;;;;754785;184;919761;-77
2021/07/11 06:42:36;;;;;;;19.57;17.27;;;;;;;;;;752601;184;920338;-73
2021/07/11 06:45:02;;;;;;;22.10;15.37;;;;;;;;;;753456;184;880051;-76
2021/07/11 06:47:27;;;;;;;20.53;17.37;;;;;;;;;;757965;184;705279;-75
2021/07/11 06:49:53;;;;;;;20.83;17.07;;;;;;;;;;755598;184;618670;-76
2021/07/11 06:52:19;;;;;;;18.27;15.80;;;;;;;;;;753750;184;919128;-76
2021/07/11 06:54:45;;;;;;;25.40;16.40;;;;;;;;;;757382;184;921470;-76
2021/07/11 06:57:11;;;;;;;21.27;17.63;;;;;;;;;;752740;184;920136;-77
2021/07/11 06:59:37;;;;;;;24.60;17.43;;;;;;;;;;752430;184;918412;-74
2021/07/11 07:02:03;;;;;;;20.73;17.13;;;;;;;;;;755541;184;916572;-78
2021/07/11 07:04:28;;;;;;;23.90;18.07;;;;;;;;;;749208;183;930578;-76
2021/07/11 07:06:54;;;;;;;20.43;16.57;;;;;;;;;;753438;182;919076;-76
2021/07/11 07:09:20;;;;;;;22.00;16.90;;;;;;;;;;752256;184;826519;-78
2021/07/11 07:11:46;;;;;;;21.77;17.33;;;;;;;;;;757641;184;918478;-75
2021/07/11 07:14:12;;;;;;;23.40;16.53;;;;;;;;;;748290;184;973443;-77
2021/07/11 07:16:38;;;;;;;21.77;16.83;;;;;;;;;;752760;184;921898;-77
2021/07/11 07:19:04;;;;;;;20.67;18.10;;;;;;;;;;759468;184;922364;-78
2021/07/11 07:21:30;;;;;;;20.40;18.17;;;;;;;;;;754122;184;919242;-74
2021/07/11 07:23:55;;;;;;;25.20;17.83;;;;;;;;;;756163;184;918216;-77
2021/07/11 07:26:21;;;;;;;25.23;17.77;;;;;;;;;;757464;184;817055;-74
2021/07/11 07:28:47;;;;;;;21.60;16.80;;;;;;;;;;748002;184;917320;-78
2021/07/11 07:31:13;;;;;;;21.77;16.77;;;;;;;;;;755419;183;923087;-80
2021/07/11 07:33:39;;;;;;;20.63;16.77;;;;;;;;;;748981;184;917118;-79
2021/07/11 07:36:05;;;;;;;24.00;17.43;;;;;;;;;;756157;183;1020982;-74
2021/07/11 07:38:30;;;;;;;22.10;17.07;;;;;;;;;;749805;183;951972;-77
2021/07/11 07:40:56;;;;;;;23.20;19.17;;;;;;;;;;746434;186;919160;-78
2021/07/11 07:43:22;;;;;;;21.50;18.40;;;;;;;;;;754947;184;816429;-80
2021/07/11 07:45:48;;;;;;;23.17;18.10;;;;;;;;;;754930;184;918129;-78
2021/07/11 07:48:14;;;;;;;23.53;19.03;;;;;;;;;;755551;183;918100;-80
2021/07/11 07:50:40;;;;;;;21.43;16.90;;;;;;;;;;754089;184;916712;-79
2021/07/11 07:53:06;;;;;;;18.13;16.10;;;;;;;;;;751138;184;924467;-75
2021/07/11 07:55:32;;;;;;;18.65;15.98;;;;;;;;;;751058;184;918675;-82
2021/07/11 07:57:58;;;;;;;21.37;17.20;;;;;;;;;;758749;184;918884;-81
2021/07/11 08:00:24;;;;;;;21.97;17.37;;;;;;;;;;757478;184;914324;-81
2021/07/11 08:02:50;;;;;;;20.57;17.33;;;;;;;;;;748936;183;1017429;-82
2021/07/11 08:05:16;;;;;;;21.17;17.30;;;;;;;;;;751565;184;813871;-76
2021/07/11 08:07:42;;;;;;;20.90;16.42;;;;;;;;;;759917;183;813659;-80
2021/07/11 08:10:08;;;;;;;26.10;18.60;;;;;;;;;;759392;184;812542;-77
2021/07/11 08:12:34;;;;;;;23.63;17.20;;;;;;;;;;752267;184;812287;-77
2021/07/11 08:15:00;;;;;;;24.07;18.27;;;;;;;;;;755172;184;816653;-73
2021/07/11 08:17:26;;;;;;;24.93;20.20;;;;;;;;;;752133;183;918143;-76
2021/07/11 08:19:51;;;;;;;26.33;20.90;;;;;;;;;;752892;183;911323;-80
2021/07/11 08:22:17;;;;;;;28.30;22.80;;;;;;;;;;759804;183;809085;-77
2021/07/11 08:24:43;;;;;;;28.23;20.07;;;;;;;;;;746850;184;919812;-79
2021/07/11 08:27:09;;;;;;;32.00;21.27;;;;;;;;;;749159;184;920127;-75
2021/07/11 08:29:35;;;;;;;22.67;19.30;;;;;;;;;;755591;184;817153;-73
2021/07/11 08:32:01;;;;;;;22.93;18.53;;;;;;;;;;755116;184;816798;-81
2021/07/11 08:34:26;;;;;;;27.57;22.47;;;;;;;;;;752048;184;892510;-77
2021/07/11 08:36:58;;;;;;;24.93;20.50;;;;;;;;;;751802;184;917722;-80
2021/07/11 08:39:18;;;;;;;26.37;20.93;;;;;;;;;;753196;184;892797;-78
2021/07/11 08:41:44;;;;;;;27.40;20.33;;;;;;;;;;753146;184;916618;-81
2021/07/11 08:44:10;;;;;;;22.73;19.00;;;;;;;;;;751470;184;917315;-79
2021/07/11 08:46:36;;;;;;;21.43;18.20;;;;;;;;;;758348;184;916249;-80
2021/07/11 08:49:02;;;;;;;25.23;19.63;;;;;;;;;;752507;184;917881;-81
2021/07/11 08:51:27;;;;;;;25.67;20.97;;;;;;;;;;750425;184;1005689;-82
2021/07/11 08:53:54;;;;;;;26.23;20.58;;;;;;;;;;754476;183;918282;-77
2021/07/11 08:56:20;;;;;;;22.63;19.33;;;;;;;;;;752395;184;919643;-69
2021/07/11 08:58:54;;;;;;;22.30;18.83;;;;;;;;;;753706;184;919914;-67
2021/07/11 09:01:20;;;;;;;25.37;20.83;;;;;;;;;;748708;184;919360;-80
2021/07/11 09:03:46;;;;;;;28.00;19.97;;;;;;;;;;757028;184;841233;-75
2021/07/11 09:06:11;;;;;;;21.80;17.47;;;;;;;;;;749663;184;906828;-80
2021/07/11 09:08:37;;;;;;;20.37;17.80;;;;;;;;;;750140;183;915127;-73
2021/07/11 09:11:03;;;;;;;29.93;17.63;;;;;;;;;;750483;184;925102;-73
2021/07/11 09:13:31;;;;;;;20.73;15.63;;;;;;;;;;755016;185;846663;-73
2021/07/11 09:15:55;;;;;;;24.43;18.13;;;;;;;;;;750387;184;918761;-77
2021/07/11 09:18:30;;;;;;;22.10;17.73;;;;;;;;;;750582;184;919557;-80
2021/07/11 09:20:56;;;;;;;19.43;17.10;;;;;;;;;;755441;184;921608;-80
2021/07/11 09:23:22;;;;;;;22.97;18.83;;;;;;;;;;752163;184;919047;-73
2021/07/11 09:25:54;;;;;;;21.90;19.17;;;;;;;;;;751284;184;972586;-72
2021/07/11 09:28:20;;;;;;;23.33;18.40;;;;;;;;;;752377;183;914406;-75
2021/07/11 09:30:46;;;;;;;21.30;17.77;;;;;;;;;;757964;183;1024534;-74
2021/07/11 09:33:18;;;;;;;20.07;17.20;;;;;;;;;;755229;183;918184;-79
2021/07/11 09:35:43;;;;;;;19.57;15.80;;;;;;;;;;754444;184;918841;-69
2021/07/11 09:38:12;;;;;;;21.20;16.67;;;;;;;;;;753489;184;919965;-72
2021/07/11 09:40:35;;;;;;;22.70;17.33;;;;;;;;;;759188;184;920311;-69
2021/07/11 09:43:01;;;;;;;23.00;16.83;;;;;;;;;;747460;184;1140087;-71
2021/07/11 09:45:27;;;;;;;20.52;18.35;;;;;;;;;;750717;184;918914;-72
2021/07/11 09:47:53;;;;;;;20.00;17.90;;;;;;;;;;754212;184;919269;-69
2021/07/11 09:50:21;;;;;;;22.70;18.60;;;;;;;;;;750203;184;919377;-71
2021/07/11 09:52:45;;;;;;;21.10;18.80;;;;;;;;;;751051;184;917575;-72
2021/07/11 09:55:11;;;;;;;22.20;19.77;;;;;;;;;;752561;184;919871;-71
2021/07/11 09:57:37;;;;;;;28.60;20.50;;;;;;;;;;748063;184;920408;-71
2021/07/11 10:00:05;;;;;;;22.50;20.10;;;;;;;;;;747684;184;918421;-70
2021/07/11 10:02:31;;;;;;;21.83;18.50;;;;;;;;;;750004;184;919829;-70
2021/07/11 10:04:57;;;;;;;21.73;17.43;;;;;;;;;;753528;184;913485;-71
2021/07/11 10:07:23;;;;;;;24.47;20.10;;;;;;;;;;750955;184;919150;-72
2021/07/11 10:09:49;;;;;;;23.03;19.50;;;;;;;;;;751031;184;919832;-70
2021/07/11 10:12:14;;;;;;;21.47;18.50;;;;;;;;;;758211;184;919132;-70
2021/07/11 10:14:40;;;;;;;23.13;19.10;;;;;;;;;;756735;184;918324;-73
2021/07/11 10:17:06;;;;;;;23.50;20.13;;;;;;;;;;748944;184;919962;-74
2021/07/11 10:19:32;;;;;;;24.50;21.30;;;;;;;;;;753532;184;919504;-72
2021/07/11 10:21:58;;;;;;;28.50;20.67;;;;;;;;;;750486;184;919557;-74
2021/07/11 10:24:24;;;;;;;23.73;20.27;;;;;;;;;;750874;184;875532;-75
2021/07/11 10:26:49;;;;;;;25.20;22.40;;;;;;;;;;748712;184;914560;-78
2021/07/11 10:29:16;;;;;;;23.83;20.47;;;;;;;;;;756733;183;919849;-75
2021/07/11 10:31:43;;;;;;;30.00;22.20;;;;;;;;;;750677;183;1019813;-74
2021/07/11 10:34:08;;;;;;;24.77;22.00;;;;;;;;;;750421;184;918708;-74
2021/07/11 10:36:35;;;;;;;26.58;23.25;;;;;;;;;;757663;184;918189;-76
2021/07/11 10:39:00;;;;;;;31.07;23.67;;;;;;;;;;750882;184;921236;-75
2021/07/11 10:41:27;;;;;;;30.40;24.90;;;;;;;;;;752609;183;920228;-74
2021/07/11 10:44:01;;;;;;;29.00;24.80;;;;;;;;;;755381;184;920007;-76
2021/07/11 10:46:27;;;;;;;31.80;27.50;;;;;;;;;;755199;184;919045;-73
2021/07/11 10:48:53;;;;;;;31.60;25.80;;;;;;;;;;752935;184;917281;-74
2021/07/11 10:51:19;;;;;;;29.80;26.30;;;;;;;;;;748481;183;918396;-75
2021/07/11 10:53:45;;;;;;;37.73;25.07;;;;;;;;;;756305;184;918995;-75
2021/07/11 10:56:11;;;;;;;30.83;25.57;;;;;;;;;;753116;184;919507;-75
2021/07/11 10:58:36;;;;;;;34.63;29.37;;;;;;;;;;751310;184;916753;-75
2021/07/11 11:01:02;;;;;;;32.20;26.67;;;;;;;;;;754910;184;915962;-74
2021/07/11 11:03:28;;;;;;;32.50;24.67;;;;;;;;;;749428;184;918530;-74
2021/07/11 11:05:54;;;;;;;28.73;25.73;;;;;;;;;;751768;184;1022757;-75
2021/07/11 11:08:21;;;;;;;34.90;30.13;;;;;;;;;;747573;184;917974;-75
2021/07/11 11:10:46;;;;;;;34.53;27.23;;;;;;;;;;756738;184;918876;-76
2021/07/11 11:13:12;;;;;;;26.90;23.23;;;;;;;;;;754038;184;1020825;-74
2021/07/11 11:15:37;;;;;;;32.53;26.73;;;;;;;;;;751880;184;1021051;-75
2021/07/11 11:18:09;;;;;;;28.23;25.10;;;;;;;;;;755791;183;916821;-75
2021/07/11 11:20:35;;;;;;;34.70;28.62;;;;;;;;;;751416;184;919747;-73
2021/07/11 11:23:01;;;;;;;29.30;24.73;;;;;;;;;;754476;184;918746;-71
2021/07/11 11:25:27;;;;;;;35.20;29.60;;;;;;;;;;750259;184;918914;-72
2021/07/11 11:27:52;;;;;;;38.90;25.43;;;;;;;;;;756776;184;919260;-73
2021/07/11 11:30:20;;;;;;;30.63;27.40;;;;;;;;;;756540;184;923626;-74
2021/07/11 11:32:49;;;;;;;35.20;29.43;;;;;;;;;;753398;184;918467;-74
2021/07/11 11:35:16;;;;;;;33.45;29.12;;;;;;;;;;756113;183;918869;-72
2021/07/11 11:37:46;;;;;;;31.33;24.13;;;;;;;;;;751725;183;919789;-72
2021/07/11 11:40:12;;;;;;;30.00;25.30;;;;;;;;;;750985;183;1018165;-73
2021/07/11 11:42:43;;;;;;;28.25;24.12;;;;;;;;;;748545;184;1021108;-71
2021/07/11 11:45:09;;;;;;;25.87;23.03;;;;;;;;;;760546;184;919798;-71
2021/07/11 11:47:35;;;;;;;29.30;24.33;;;;;;;;;;752842;183;916573;-73
2021/07/11 11:50:06;;;;;;;25.80;23.03;;;;;;;;;;749174;184;1121985;-71
2021/07/11 11:52:32;;;;;;;26.50;23.77;;;;;;;;;;753926;183;1021788;-72
2021/07/11 11:54:58;;;;;;;21.23;17.37;;;;;;;;;;761462;183;918768;-73
2021/07/11 11:57:24;;;;;;;19.63;17.50;;;;;;;;;;753269;184;919129;-72
2021/07/11 11:59:50;;;;;;;24.80;18.80;;;;;;;;;;752050;184;923009;-72
2021/07/11 12:02:16;;;;;;;20.47;18.27;;;;;;;;;;756537;184;919247;-73
2021/07/11 12:04:42;;;;;;;15.00;13.53;;;;;;;;;;741052;183;919309;-74
2021/07/11 12:07:07;;;;;;;12.10;8.87;;;;;;;;;;748620;184;918457;-73
2021/07/11 12:09:33;;;;;;;9.27;7.90;;;;;;;;;;755761;184;876604;-73
2021/07/11 12:11:59;;;;;;;8.37;7.50;;;;;;;;;;749150;183;917093;-75
2021/07/11 12:14:25;;;;;;;7.33;6.63;;;;;;;;;;751296;184;920297;-72
2021/07/11 12:16:55;;;;;;;14.63;13.10;;;;;;;;;;751687;184;914610;-73
2021/07/11 12:19:21;;;;;;;18.00;16.10;;;;;;;;;;754291;185;917726;-72
2021/07/11 12:21:48;;;;;;;18.43;13.53;;;;;;;;;;750621;184;916406;-73
2021/07/11 12:24:14;;;;;;;11.90;10.17;;;;;;;;;;750754;184;919257;-73
2021/07/11 12:26:38;;;;;;;14.30;12.60;;;;;;;;;;759081;184;918408;-72
2021/07/11 12:29:04;;;;;;;12.30;11.00;;;;;;;;;;751154;184;920435;-75
2021/07/11 12:31:30;;;;;;;10.70;7.43;;;;;;;;;;749842;184;918845;-75
2021/07/11 12:33:56;;;;;;;8.25;7.45;;;;;;;;;;754666;184;918647;-72
2021/07/11 12:36:22;;;;;;;8.50;7.70;;;;;;;;;;752248;184;919436;-74
2021/07/11 12:38:48;;;;;;;8.83;7.93;;;;;;;;;;749186;184;920016;-73
2021/07/11 12:41:14;;;;;;;9.43;8.47;;;;;;;;;;750361;184;919502;-74
2021/07/11 12:43:47;;;;;;;9.73;7.80;;;;;;;;;;755137;184;919417;-75
2021/07/11 12:46:12;;;;;;;7.73;6.97;;;;;;;;;;752402;184;920236;-75
2021/07/11 12:48:38;;;;;;;8.40;7.53;;;;;;;;;;746986;184;918385;-71
2021/07/11 12:51:10;;;;;;;9.40;7.33;;;;;;;;;;753252;184;918787;-71
2021/07/11 12:53:36;;;;;;;11.77;8.43;;;;;;;;;;755523;184;908849;-72
2021/07/11 12:56:02;;;;;;;22.03;13.53;;;;;;;;;;748832;184;918902;-73
2021/07/11 12:58:28;;;;;;;20.33;13.20;;;;;;;;;;744345;186;1020661;-73
2021/07/11 13:00:54;;;;;;;16.53;11.40;;;;;;;;;;755071;184;919548;-73
2021/07/11 13:03:20;;;;;;;9.60;8.60;;;;;;;;;;750266;183;922339;-71
2021/07/11 13:05:47;;;;;;;13.27;10.60;;;;;;;;;;749847;184;918914;-74
2021/07/11 13:08:11;;;;;;;14.10;9.67;;;;;;;;;;756314;184;920543;-69
2021/07/11 13:10:38;;;;;;;13.53;10.37;;;;;;;;;;752539;184;915327;-72
2021/07/11 13:13:04;;;;;;;13.23;10.97;;;;;;;;;;748331;184;918643;-75
2021/07/11 13:15:30;;;;;;;12.67;11.33;;;;;;;;;;750844;184;919606;-72
2021/07/11 13:17:56;;;;;;;16.37;13.77;;;;;;;;;;755409;183;989185;-77
2021/07/11 13:20:22;;;;;;;15.43;12.90;;;;;;;;;;753457;184;1020738;-72
2021/07/11 13:22:47;;;;;;;14.87;13.37;;;;;;;;;;749925;184;918164;-72
2021/07/11 13:25:14;;;;;;;19.63;17.57;;;;;;;;;;758352;184;919786;-71
2021/07/11 13:27:39;;;;;;;19.97;15.60;;;;;;;;;;751755;184;918361;-71
2021/07/11 13:30:06;;;;;;;17.70;15.07;;;;;;;;;;749949;184;920765;-72
2021/07/11 13:32:31;;;;;;;15.73;14.10;;;;;;;;;;752726;184;1123858;-69
2021/07/11 13:34:57;;;;;;;15.63;14.03;;;;;;;;;;753612;184;949277;-73
2021/07/11 13:37:23;;;;;;;17.50;13.27;;;;;;;;;;750664;184;918724;-73
2021/07/11 13:39:49;;;;;;;14.77;12.30;;;;;;;;;;750582;184;917879;-72
2021/07/11 13:42:15;;;;;;;13.73;12.07;;;;;;;;;;744132;187;920984;-74
2021/07/11 13:44:43;;;;;;;13.17;11.83;;;;;;;;;;754407;184;919860;-71
2021/07/11 13:47:07;;;;;;;12.85;11.48;;;;;;;;;;749769;184;919238;-71
2021/07/11 13:49:32;;;;;;;13.33;11.67;;;;;;;;;;754226;184;1020858;-71
2021/07/11 13:51:58;;;;;;;16.27;13.60;;;;;;;;;;750628;184;919946;-74
2021/07/11 13:54:24;;;;;;;13.88;12.48;;;;;;;;;;748120;184;1046075;-72
2021/07/11 13:56:50;;;;;;;11.50;10.40;;;;;;;;;;754544;184;925496;-71
2021/07/11 13:59:16;;;;;;;16.07;11.83;;;;;;;;;;752168;184;918083;-71